Norwegian Star — C6FR3 — position and weather

sailwx.info

Track history (hours):
 
Tides and Currents Weather Stations Pressure Air Temp Water Temp Dewpoint Dewpoint Depression Visibility Wind Speed Wind Dir Waves Ship Positions

Norwegian Star

Operator: Norwegian Cruise Line

Last reported at 2014-Sep-02 15:07 UTC. Time now 2014-Sep-02 19:04 UTC.
Position N 59°22' E 018°24'.

Type: Ship. MMSI: 311082000.

Date/timePositionNaut miles runAvg speedWind from/ knotsBaromVisibWave heightAir tempDewpointWater temp
2014-Sep-02 15:07N 59°22' E 018°24'610.7
2014-Sep-02 14:33N 59°20' E 018°12'2 2.4
2014-Sep-02 13:31N 59°21' E 018°08'0 0.0
2014-Sep-02 12:28N 59°21' E 018°08'0 0.0
2014-Sep-02 11:33N 59°21' E 018°08'0 0.0
2014-Sep-02 10:33N 59°21' E 018°08'0 0.1
2014-Sep-02 09:32N 59°21' E 018°08'0 0.1
2014-Sep-02 08:32N 59°21' E 018°08'0 0.0
2014-Sep-02 07:29N 59°21' E 018°08'1 1.3
2014-Sep-02 06:33N 59°20' E 018°10'9 8.3
2014-Sep-02 05:29N 59°23' E 018°27'13011.8
2014-Sep-01 18:27N 59°32' E 022°43'1328.1
2014-Sep-01 18:00N 59°30' E 022°18'2660.2 050 / 121021.0 1.015.0 17.0
2014-Sep-01 17:34N 59°36' E 023°08'1515.3
2014-Sep-01 16:33N 59°40' E 023°37'1515.5
2014-Sep-01 15:33N 59°45' E 024°06'2215.7
2014-Sep-01 14:10N 59°56' E 024°44'912.6
2014-Sep-01 13:29N 60°03' E 024°53'6 6.4
2014-Sep-01 12:32N 60°09' E 024°55'0 0.0
2014-Sep-01 11:31N 60°09' E 024°55'0 0.0
2014-Sep-01 10:31N 60°09' E 024°55'0 0.0
2014-Sep-01 09:32N 60°09' E 024°55'0 0.0
2014-Sep-01 08:32N 60°09' E 024°55'0 0.0
2014-Sep-01 07:31N 60°09' E 024°55'0 0.0
2014-Sep-01 06:31N 60°09' E 024°55'0 0.0
2014-Sep-01 05:34N 60°09' E 024°55'0 0.0
2014-Sep-01 04:33N 60°09' E 024°55'0 0.1
2014-Sep-01 03:34N 60°09' E 024°55'32 9.9
2014-Sep-01 00:19N 59°57' E 025°55'1114.8
2014-Aug-31 23:33N 59°59' E 026°17'1716.1
2014-Aug-31 22:32N 60°00' E 026°50'1615.0
2014-Aug-31 21:28N 60°05' E 027°20'8413.8
2014-Aug-31 15:26N 59°57' E 030°07'2 2.5
2014-Aug-31 14:30N 59°57' E 030°11'0 0.0
2014-Aug-31 13:32N 59°57' E 030°11'0 0.0
2014-Aug-31 12:26N 59°57' E 030°11'0 0.0
2014-Aug-31 11:32N 59°57' E 030°11'0 0.0
2014-Aug-31 10:28N 59°57' E 030°11'0 0.0
2014-Aug-31 09:31N 59°57' E 030°11'0 0.0
2014-Aug-31 08:31N 59°57' E 030°11'0 0.0
2014-Aug-31 07:33N 59°57' E 030°11'0 0.0
2014-Aug-31 06:33N 59°57' E 030°11'0 0.0
2014-Aug-31 05:29N 59°57' E 030°11'0 0.0
2014-Aug-31 04:32N 59°57' E 030°11'0 0.0
2014-Aug-31 03:31N 59°57' E 030°11'0 0.0
2014-Aug-31 02:31N 59°57' E 030°11'0 0.0
2014-Aug-31 01:28N 59°57' E 030°11'0 0.0
2014-Aug-31 00:30N 59°57' E 030°11'0 0.0
2014-Aug-30 23:33N 59°57' E 030°11'0 0.0
2014-Aug-30 22:32N 59°57' E 030°11'0 0.0
2014-Aug-30 21:32N 59°57' E 030°11'0 0.0
2014-Aug-30 20:31N 59°57' E 030°11'0 0.0
2014-Aug-30 19:31N 59°57' E 030°11'0 0.0
2014-Aug-30 18:31N 59°57' E 030°11'0 0.0
2014-Aug-30 17:33N 59°57' E 030°11'0 0.0
2014-Aug-30 16:33N 59°57' E 030°11'0 0.0
2014-Aug-30 15:23N 59°57' E 030°11'0 0.0
2014-Aug-30 14:23N 59°57' E 030°11'0 0.0
2014-Aug-30 13:31N 59°57' E 030°11'0 0.0
2014-Aug-30 12:31N 59°57' E 030°11'0 0.0
2014-Aug-30 11:31N 59°57' E 030°11'0 0.0
2014-Aug-30 10:33N 59°57' E 030°11'0 0.0
2014-Aug-30 09:33N 59°57' E 030°11'0 0.0
2014-Aug-30 08:32N 59°57' E 030°11'0 0.0
2014-Aug-30 07:32N 59°57' E 030°11'0 0.0
2014-Aug-30 06:31N 59°57' E 030°11'0 0.0
2014-Aug-30 05:31N 59°57' E 030°11'0 0.0
2014-Aug-30 04:24N 59°57' E 030°11'0 0.0
2014-Aug-30 03:33N 59°57' E 030°11'6 6.2
2014-Aug-30 02:33N 59°55' E 029°59'10013.8
2014-Aug-29 19:17N 59°59' E 026°39'1813.5
2014-Aug-29 18:00N 59°54' E 026°06'3019.2 050 / 221009.0 1.515.0 17.0
2014-Aug-29 16:25N 59°46' E 025°08'1416.2
2014-Aug-29 15:34N 59°39' E 024°44'1212.0
2014-Aug-29 14:33N 59°27' E 024°46'0 0.3
2014-Aug-29 13:32N 59°27' E 024°46'0 0.0
2014-Aug-29 12:31N 59°27' E 024°46'0 0.0
2014-Aug-29 11:31N 59°27' E 024°46'0 0.0
2014-Aug-29 10:31N 59°27' E 024°46'0 0.0
2014-Aug-29 09:33N 59°27' E 024°46'0 0.0
2014-Aug-29 08:33N 59°27' E 024°46'0 0.0
2014-Aug-29 07:32N 59°27' E 024°46'0 0.0
2014-Aug-29 06:32N 59°27' E 024°46'0 0.1
2014-Aug-29 05:33N 59°27' E 024°46'9 9.2
2014-Aug-29 04:33N 59°30' E 024°28'6416.1
2014-Aug-29 00:33N 59°18' E 022°24'8518.5
2014-Aug-28 20:00N 58°12' E 020°42'18217.4 320 / 361008.0 2.014.6 16.0
2014-Aug-28 09:33N 56°03' E 016°46'5417.3
2014-Aug-28 06:26N 55°36' E 015°22'1517.0
2014-Aug-28 05:32N 55°30' E 014°57'1616.9
2014-Aug-28 04:33N 55°20' E 014°33'1717.0
2014-Aug-28 03:33N 55°07' E 014°14'1616.4
2014-Aug-28 02:34N 54°57' E 013°52'1716.9
2014-Aug-28 01:33N 54°52' E 013°23'1616.5
2014-Aug-28 00:33N 54°47' E 012°56'1616.3
2014-Aug-27 23:34N 54°41' E 012°30'1615.9
2014-Aug-27 22:33N 54°28' E 012°13'10 9.7
2014-Aug-27 21:33N 54°19' E 012°09'6 5.7
2014-Aug-27 20:33N 54°14' E 012°04'4 3.7
2014-Aug-27 19:32N 54°10' E 012°06'0 0.0
2014-Aug-27 18:31N 54°10' E 012°06'0 0.0
2014-Aug-27 17:10N 54°10' E 012°06'0 0.0
2014-Aug-27 16:33N 54°10' E 012°06'0 0.0
2014-Aug-27 15:12N 54°10' E 012°06'0 0.0
2014-Aug-27 14:26N 54°10' E 012°06'0 0.0
2014-Aug-27 13:32N 54°10' E 012°06'0 0.0
2014-Aug-27 12:32N 54°10' E 012°06'0 0.0
2014-Aug-27 11:31N 54°10' E 012°06'0 0.0
2014-Aug-27 10:13N 54°10' E 012°06'0 0.0
2014-Aug-27 09:33N 54°10' E 012°06'0 0.0
2014-Aug-27 08:24N 54°10' E 012°06'0 0.0
2014-Aug-27 07:23N 54°10' E 012°06'0 0.0
2014-Aug-27 06:20N 54°10' E 012°06'0 0.0
2014-Aug-27 05:32N 54°10' E 012°06'5 4.8
2014-Aug-27 04:33N 54°15' E 012°02'1313.2
2014-Aug-27 03:32N 54°24' E 011°46'1515.4
2014-Aug-27 02:33N 54°31' E 011°23'1616.4
2014-Aug-27 01:33N 54°39' E 010°58'9512.9
2014-Aug-26 18:14N 56°09' E 011°54'1319.2
2014-Aug-26 17:33N 56°12' E 012°17'1616.2
2014-Aug-26 16:33N 56°02' E 012°40'1514.9
2014-Aug-26 15:33N 55°47' E 012°43'6 5.4
2014-Aug-26 14:32N 55°43' E 012°37'0 0.0
2014-Aug-26 13:31N 55°43' E 012°37'0 0.0
2014-Aug-26 12:31N 55°43' E 012°37'0 0.0
2014-Aug-26 11:33N 55°43' E 012°37'0 0.0
2014-Aug-26 10:33N 55°43' E 012°37'0 0.0
2014-Aug-26 09:33N 55°43' E 012°37'1 2.0
2014-Aug-26 09:00N 55°42' E 012°36'1 2.5 320 / 71005.0 0.517.9 16.0
2014-Aug-26 08:32N 55°43' E 012°37'0 0.0
2014-Aug-26 07:32N 55°43' E 012°37'0 0.1
2014-Aug-26 06:32N 55°43' E 012°38'0 0.1
2014-Aug-26 05:31N 55°43' E 012°37'0 0.0
2014-Aug-26 04:33N 55°43' E 012°37'8 7.9
2014-Aug-26 03:33N 55°50' E 012°41'1515.1
2014-Aug-26 02:34N 56°05' E 012°35'1716.7
2014-Aug-26 01:33N 56°12' E 012°07'10413.0
2014-Aug-25 17:33N 54°28' E 011°43'1817.4
2014-Aug-25 16:30N 54°31' E 012°14'2319.7
2014-Aug-25 15:21N 54°46' E 012°43'1721.6
2014-Aug-25 14:33N 54°53' E 013°11'2020.0
2014-Aug-25 13:33N 54°59' E 013°44'2221.6
2014-Aug-25 12:32N 55°12' E 014°16'2421.8
2014-Aug-25 11:27N 55°29' E 014°44'2121.9
2014-Aug-25 10:30N 55°39' E 015°17'9619.3
2014-Aug-25 05:31N 56°49' E 017°16'1920.3
2014-Aug-25 04:33N 57°07' E 017°27'2020.1
2014-Aug-25 03:33N 57°26' E 017°38'114 5.9
2014-Aug-24 08:21N 59°19' E 018°06'0 0.0
2014-Aug-24 07:33N 59°19' E 018°06'0 0.0
2014-Aug-24 06:33N 59°19' E 018°06'2 1.8
2014-Aug-24 05:33N 59°19' E 018°09'10 8.7
2014-Aug-24 04:26N 59°24' E 018°26'  
Track history (hours):
 
Tides and Currents Weather Stations Pressure Air Temp Water Temp Dewpoint Dewpoint Depression Visibility Wind Speed Wind Dir Waves Ship Positions

Norwegian Star

Operator: Norwegian Cruise Line

Last reported at 2014-Sep-02 15:07 UTC. Time now 2014-Sep-02 19:04 UTC.
Position N 59°22' E 018°24'.

Type: Ship. MMSI: 311082000.

Date/timePositionNaut miles runAvg speedWind from/ knotsBaromVisibWave heightAir tempDewpointWater temp
2014-Sep-02 15:07N 59°22' E 018°24'610.7
2014-Sep-02 14:33N 59°20' E 018°12'2 2.4
2014-Sep-02 13:31N 59°21' E 018°08'0 0.0
2014-Sep-02 12:28N 59°21' E 018°08'0 0.0
2014-Sep-02 11:33N 59°21' E 018°08'0 0.0
2014-Sep-02 10:33N 59°21' E 018°08'0 0.1
2014-Sep-02 09:32N 59°21' E 018°08'0 0.1
2014-Sep-02 08:32N 59°21' E 018°08'0 0.0
2014-Sep-02 07:29N 59°21' E 018°08'1 1.3
2014-Sep-02 06:33N 59°20' E 018°10'9 8.3
2014-Sep-02 05:29N 59°23' E 018°27'13011.8
2014-Sep-01 18:27N 59°32' E 022°43'1328.1
2014-Sep-01 18:00N 59°30' E 022°18'2660.2 050 / 121021.0 1.015.0 17.0
2014-Sep-01 17:34N 59°36' E 023°08'1515.3
2014-Sep-01 16:33N 59°40' E 023°37'1515.5
2014-Sep-01 15:33N 59°45' E 024°06'2215.7
2014-Sep-01 14:10N 59°56' E 024°44'912.6
2014-Sep-01 13:29N 60°03' E 024°53'6 6.4
2014-Sep-01 12:32N 60°09' E 024°55'0 0.0
2014-Sep-01 11:31N 60°09' E 024°55'0 0.0
2014-Sep-01 10:31N 60°09' E 024°55'0 0.0
2014-Sep-01 09:32N 60°09' E 024°55'0 0.0
2014-Sep-01 08:32N 60°09' E 024°55'0 0.0
2014-Sep-01 07:31N 60°09' E 024°55'0 0.0
2014-Sep-01 06:31N 60°09' E 024°55'0 0.0
2014-Sep-01 05:34N 60°09' E 024°55'0 0.0
2014-Sep-01 04:33N 60°09' E 024°55'0 0.1
2014-Sep-01 03:34N 60°09' E 024°55'32 9.9
2014-Sep-01 00:19N 59°57' E 025°55'1114.8
2014-Aug-31 23:33N 59°59' E 026°17'1716.1
2014-Aug-31 22:32N 60°00' E 026°50'1615.0
2014-Aug-31 21:28N 60°05' E 027°20'8413.8
2014-Aug-31 15:26N 59°57' E 030°07'2 2.5
2014-Aug-31 14:30N 59°57' E 030°11'0 0.0
2014-Aug-31 13:32N 59°57' E 030°11'0 0.0
2014-Aug-31 12:26N 59°57' E 030°11'0 0.0
2014-Aug-31 11:32N 59°57' E 030°11'0 0.0
2014-Aug-31 10:28N 59°57' E 030°11'0 0.0
2014-Aug-31 09:31N 59°57' E 030°11'0 0.0
2014-Aug-31 08:31N 59°57' E 030°11'0 0.0
2014-Aug-31 07:33N 59°57' E 030°11'0 0.0
2014-Aug-31 06:33N 59°57' E 030°11'0 0.0
2014-Aug-31 05:29N 59°57' E 030°11'0 0.0
2014-Aug-31 04:32N 59°57' E 030°11'0 0.0
2014-Aug-31 03:31N 59°57' E 030°11'0 0.0
2014-Aug-31 02:31N 59°57' E 030°11'0 0.0
2014-Aug-31 01:28N 59°57' E 030°11'0 0.0
2014-Aug-31 00:30N 59°57' E 030°11'0 0.0
2014-Aug-30 23:33N 59°57' E 030°11'0 0.0
2014-Aug-30 22:32N 59°57' E 030°11'0 0.0
2014-Aug-30 21:32N 59°57' E 030°11'0 0.0
2014-Aug-30 20:31N 59°57' E 030°11'0 0.0
2014-Aug-30 19:31N 59°57' E 030°11'0 0.0
2014-Aug-30 18:31N 59°57' E 030°11'0 0.0
2014-Aug-30 17:33N 59°57' E 030°11'0 0.0
2014-Aug-30 16:33N 59°57' E 030°11'0 0.0
2014-Aug-30 15:23N 59°57' E 030°11'0 0.0
2014-Aug-30 14:23N 59°57' E 030°11'0 0.0
2014-Aug-30 13:31N 59°57' E 030°11'0 0.0
2014-Aug-30 12:31N 59°57' E 030°11'0 0.0
2014-Aug-30 11:31N 59°57' E 030°11'0 0.0
2014-Aug-30 10:33N 59°57' E 030°11'0 0.0
2014-Aug-30 09:33N 59°57' E 030°11'0 0.0
2014-Aug-30 08:32N 59°57' E 030°11'0 0.0
2014-Aug-30 07:32N 59°57' E 030°11'0 0.0
2014-Aug-30 06:31N 59°57' E 030°11'0 0.0
2014-Aug-30 05:31N 59°57' E 030°11'0 0.0
2014-Aug-30 04:24N 59°57' E 030°11'0 0.0
2014-Aug-30 03:33N 59°57' E 030°11'6 6.2
2014-Aug-30 02:33N 59°55' E 029°59'10013.8
2014-Aug-29 19:17N 59°59' E 026°39'1813.5
2014-Aug-29 18:00N 59°54' E 026°06'3019.2 050 / 221009.0 1.515.0 17.0
2014-Aug-29 16:25N 59°46' E 025°08'1416.2
2014-Aug-29 15:34N 59°39' E 024°44'1212.0
2014-Aug-29 14:33N 59°27' E 024°46'0 0.3
2014-Aug-29 13:32N 59°27' E 024°46'0 0.0
2014-Aug-29 12:31N 59°27' E 024°46'0 0.0
2014-Aug-29 11:31N 59°27' E 024°46'0 0.0
2014-Aug-29 10:31N 59°27' E 024°46'0 0.0
2014-Aug-29 09:33N 59°27' E 024°46'0 0.0
2014-Aug-29 08:33N 59°27' E 024°46'0 0.0
2014-Aug-29 07:32N 59°27' E 024°46'0 0.0
2014-Aug-29 06:32N 59°27' E 024°46'0 0.1
2014-Aug-29 05:33N 59°27' E 024°46'9 9.2
2014-Aug-29 04:33N 59°30' E 024°28'6416.1
2014-Aug-29 00:33N 59°18' E 022°24'8518.5
2014-Aug-28 20:00N 58°12' E 020°42'18217.4 320 / 361008.0 2.014.6 16.0
2014-Aug-28 09:33N 56°03' E 016°46'5417.3
2014-Aug-28 06:26N 55°36' E 015°22'1517.0
2014-Aug-28 05:32N 55°30' E 014°57'1616.9
2014-Aug-28 04:33N 55°20' E 014°33'1717.0
2014-Aug-28 03:33N 55°07' E 014°14'1616.4
2014-Aug-28 02:34N 54°57' E 013°52'1716.9
2014-Aug-28 01:33N 54°52' E 013°23'1616.5
2014-Aug-28 00:33N 54°47' E 012°56'1616.3
2014-Aug-27 23:34N 54°41' E 012°30'1615.9
2014-Aug-27 22:33N 54°28' E 012°13'10 9.7
2014-Aug-27 21:33N 54°19' E 012°09'6 5.7
2014-Aug-27 20:33N 54°14' E 012°04'4 3.7
2014-Aug-27 19:32N 54°10' E 012°06'0 0.0
2014-Aug-27 18:31N 54°10' E 012°06'0 0.0
2014-Aug-27 17:10N 54°10' E 012°06'0 0.0
2014-Aug-27 16:33N 54°10' E 012°06'0 0.0
2014-Aug-27 15:12N 54°10' E 012°06'0 0.0
2014-Aug-27 14:26N 54°10' E 012°06'0 0.0
2014-Aug-27 13:32N 54°10' E 012°06'0 0.0
2014-Aug-27 12:32N 54°10' E 012°06'0 0.0
2014-Aug-27 11:31N 54°10' E 012°06'0 0.0
2014-Aug-27 10:13N 54°10' E 012°06'0 0.0
2014-Aug-27 09:33N 54°10' E 012°06'0 0.0
2014-Aug-27 08:24N 54°10' E 012°06'0 0.0
2014-Aug-27 07:23N 54°10' E 012°06'0 0.0
2014-Aug-27 06:20N 54°10' E 012°06'0 0.0
2014-Aug-27 05:32N 54°10' E 012°06'5 4.8
2014-Aug-27 04:33N 54°15' E 012°02'1313.2
2014-Aug-27 03:32N 54°24' E 011°46'1515.4
2014-Aug-27 02:33N 54°31' E 011°23'1616.4
2014-Aug-27 01:33N 54°39' E 010°58'9512.9
2014-Aug-26 18:14N 56°09' E 011°54'1319.2
2014-Aug-26 17:33N 56°12' E 012°17'1616.2
2014-Aug-26 16:33N 56°02' E 012°40'1514.9
2014-Aug-26 15:33N 55°47' E 012°43'6 5.4
2014-Aug-26 14:32N 55°43' E 012°37'0 0.0
2014-Aug-26 13:31N 55°43' E 012°37'0 0.0
2014-Aug-26 12:31N 55°43' E 012°37'0 0.0
2014-Aug-26 11:33N 55°43' E 012°37'0 0.0
2014-Aug-26 10:33N 55°43' E 012°37'0 0.0
2014-Aug-26 09:33N 55°43' E 012°37'1 2.0
2014-Aug-26 09:00N 55°42' E 012°36'1 2.5 320 / 71005.0 0.517.9 16.0
2014-Aug-26 08:32N 55°43' E 012°37'0 0.0
2014-Aug-26 07:32N 55°43' E 012°37'0 0.1
2014-Aug-26 06:32N 55°43' E 012°38'0 0.1
2014-Aug-26 05:31N 55°43' E 012°37'0 0.0
2014-Aug-26 04:33N 55°43' E 012°37'8 7.9
2014-Aug-26 03:33N 55°50' E 012°41'1515.1
2014-Aug-26 02:34N 56°05' E 012°35'1716.7
2014-Aug-26 01:33N 56°12' E 012°07'10413.0
2014-Aug-25 17:33N 54°28' E 011°43'1817.4
2014-Aug-25 16:30N 54°31' E 012°14'2319.7
2014-Aug-25 15:21N 54°46' E 012°43'1721.6
2014-Aug-25 14:33N 54°53' E 013°11'2020.0
2014-Aug-25 13:33N 54°59' E 013°44'2221.6
2014-Aug-25 12:32N 55°12' E 014°16'2421.8
2014-Aug-25 11:27N 55°29' E 014°44'2121.9
2014-Aug-25 10:30N 55°39' E 015°17'9619.3
2014-Aug-25 05:31N 56°49' E 017°16'1920.3
2014-Aug-25 04:33N 57°07' E 017°27'2020.1
2014-Aug-25 03:33N 57°26' E 017°38'114 5.9
2014-Aug-24 08:21N 59°19' E 018°06'0 0.0
2014-Aug-24 07:33N 59°19' E 018°06'0 0.0
2014-Aug-24 06:33N 59°19' E 018°06'2 1.8
2014-Aug-24 05:33N 59°19' E 018°09'10 8.7
2014-Aug-24 04:26N 59°24' E 018°26'  

Dump ship's entire track history